sensor_id;sensor_type;location;lat;lon;timestamp;P1;durP1;ratioP1;P2;durP2;ratioP2
20657;SDS011;10488;50.846;4.078;2024-02-15T00:00:21;9.75;;;3.92;;
20657;SDS011;10488;50.846;4.078;2024-02-15T00:02:47;13.90;;;4.03;;
20657;SDS011;10488;50.846;4.078;2024-02-15T00:05:13;13.02;;;4.25;;
20657;SDS011;10488;50.846;4.078;2024-02-15T00:07:42;17.20;;;4.22;;
20657;SDS011;10488;50.846;4.078;2024-02-15T00:10:09;10.60;;;3.63;;
20657;SDS011;10488;50.846;4.078;2024-02-15T00:12:34;12.73;;;4.32;;
20657;SDS011;10488;50.846;4.078;2024-02-15T00:15:01;10.90;;;3.58;;
20657;SDS011;10488;50.846;4.078;2024-02-15T00:17:29;12.93;;;4.93;;
20657;SDS011;10488;50.846;4.078;2024-02-15T00:19:55;15.98;;;4.28;;
20657;SDS011;10488;50.846;4.078;2024-02-15T00:22:21;12.77;;;4.50;;
20657;SDS011;10488;50.846;4.078;2024-02-15T00:24:47;11.98;;;4.95;;
20657;SDS011;10488;50.846;4.078;2024-02-15T00:27:16;14.35;;;5.28;;
20657;SDS011;10488;50.846;4.078;2024-02-15T00:29:42;13.50;;;4.57;;
20657;SDS011;10488;50.846;4.078;2024-02-15T00:32:08;19.08;;;4.97;;
20657;SDS011;10488;50.846;4.078;2024-02-15T00:34:36;16.40;;;4.93;;
20657;SDS011;10488;50.846;4.078;2024-02-15T00:37:05;12.82;;;4.72;;
20657;SDS011;10488;50.846;4.078;2024-02-15T00:39:31;18.70;;;4.95;;
20657;SDS011;10488;50.846;4.078;2024-02-15T00:41:57;20.60;;;5.50;;
20657;SDS011;10488;50.846;4.078;2024-02-15T00:44:25;14.00;;;6.00;;
20657;SDS011;10488;50.846;4.078;2024-02-15T00:46:53;14.50;;;5.72;;
20657;SDS011;10488;50.846;4.078;2024-02-15T00:49:19;15.80;;;6.20;;
20657;SDS011;10488;50.846;4.078;2024-02-15T00:51:45;17.83;;;5.90;;
20657;SDS011;10488;50.846;4.078;2024-02-15T00:54:11;22.58;;;6.78;;
20657;SDS011;10488;50.846;4.078;2024-02-15T00:56:37;22.83;;;6.60;;
20657;SDS011;10488;50.846;4.078;2024-02-15T00:59:02;17.88;;;6.07;;
20657;SDS011;10488;50.846;4.078;2024-02-15T01:01:30;19.23;;;6.00;;
20657;SDS011;10488;50.846;4.078;2024-02-15T01:03:56;14.57;;;5.45;;
20657;SDS011;10488;50.846;4.078;2024-02-15T01:06:21;15.35;;;6.07;;
20657;SDS011;10488;50.846;4.078;2024-02-15T01:08:47;18.80;;;5.38;;
20657;SDS011;10488;50.846;4.078;2024-02-15T01:11:12;18.92;;;4.78;;
20657;SDS011;10488;50.846;4.078;2024-02-15T01:13:39;12.77;;;4.88;;
20657;SDS011;10488;50.846;4.078;2024-02-15T01:16:04;13.75;;;4.35;;
20657;SDS011;10488;50.846;4.078;2024-02-15T01:18:30;13.98;;;4.30;;
20657;SDS011;10488;50.846;4.078;2024-02-15T01:20:57;12.30;;;4.45;;
20657;SDS011;10488;50.846;4.078;2024-02-15T01:23:23;15.50;;;4.55;;
20657;SDS011;10488;50.846;4.078;2024-02-15T01:25:48;9.57;;;3.90;;
20657;SDS011;10488;50.846;4.078;2024-02-15T01:28:14;11.25;;;3.70;;
20657;SDS011;10488;50.846;4.078;2024-02-15T01:30:40;20.80;;;3.92;;
20657;SDS011;10488;50.846;4.078;2024-02-15T01:33:08;9.52;;;3.30;;
20657;SDS011;10488;50.846;4.078;2024-02-15T01:35:36;9.88;;;3.90;;
20657;SDS011;10488;50.846;4.078;2024-02-15T01:38:02;13.60;;;4.13;;
20657;SDS011;10488;50.846;4.078;2024-02-15T01:40:27;10.52;;;3.85;;
20657;SDS011;10488;50.846;4.078;2024-02-15T01:42:53;18.15;;;4.93;;
20657;SDS011;10488;50.846;4.078;2024-02-15T01:45:20;11.85;;;4.30;;
20657;SDS011;10488;50.846;4.078;2024-02-15T01:47:46;9.05;;;4.30;;
20657;SDS011;10488;50.846;4.078;2024-02-15T01:50:13;11.30;;;3.63;;
20657;SDS011;10488;50.846;4.078;2024-02-15T01:52:39;8.00;;;3.42;;
20657;SDS011;10488;50.846;4.078;2024-02-15T01:55:08;8.80;;;3.15;;
20657;SDS011;10488;50.846;4.078;2024-02-15T01:57:35;11.75;;;3.60;;
20657;SDS011;10488;50.846;4.078;2024-02-15T02:00:03;10.80;;;3.00;;
20657;SDS011;10488;50.846;4.078;2024-02-15T02:02:30;5.90;;;2.80;;
20657;SDS011;10488;50.846;4.078;2024-02-15T02:04:57;10.23;;;2.97;;
20657;SDS011;10488;50.846;4.078;2024-02-15T02:07:23;8.68;;;2.97;;
20657;SDS011;10488;50.846;4.078;2024-02-15T02:09:49;7.95;;;2.88;;
20657;SDS011;10488;50.846;4.078;2024-02-15T02:12:14;10.20;;;2.92;;
20657;SDS011;10488;50.846;4.078;2024-02-15T02:14:43;9.25;;;3.00;;
20657;SDS011;10488;50.846;4.078;2024-02-15T02:17:14;10.88;;;3.40;;
20657;SDS011;10488;50.846;4.078;2024-02-15T02:19:41;8.85;;;2.90;;
20657;SDS011;10488;50.846;4.078;2024-02-15T02:22:08;11.48;;;3.08;;
20657;SDS011;10488;50.846;4.078;2024-02-15T02:24:36;9.25;;;3.00;;
20657;SDS011;10488;50.846;4.078;2024-02-15T02:27:10;11.55;;;2.42;;
20657;SDS011;10488;50.846;4.078;2024-02-15T02:29:42;14.30;;;3.03;;
20657;SDS011;10488;50.846;4.078;2024-02-15T02:32:10;6.38;;;2.50;;
20657;SDS011;10488;50.846;4.078;2024-02-15T02:34:37;11.98;;;3.10;;
20657;SDS011;10488;50.846;4.078;2024-02-15T02:37:03;14.35;;;3.05;;
20657;SDS011;10488;50.846;4.078;2024-02-15T02:39:30;9.00;;;2.35;;
20657;SDS011;10488;50.846;4.078;2024-02-15T02:41:56;6.63;;;2.78;;
20657;SDS011;10488;50.846;4.078;2024-02-15T02:44:23;16.02;;;3.38;;
20657;SDS011;10488;50.846;4.078;2024-02-15T02:46:48;7.05;;;2.45;;
20657;SDS011;10488;50.846;4.078;2024-02-15T02:49:14;9.70;;;2.60;;
20657;SDS011;10488;50.846;4.078;2024-02-15T02:51:39;10.55;;;2.28;;
20657;SDS011;10488;50.846;4.078;2024-02-15T02:54:05;11.13;;;3.10;;
20657;SDS011;10488;50.846;4.078;2024-02-15T02:56:34;9.98;;;2.78;;
20657;SDS011;10488;50.846;4.078;2024-02-15T02:59:00;4.28;;;2.50;;
20657;SDS011;10488;50.846;4.078;2024-02-15T03:01:25;9.52;;;2.92;;
20657;SDS011;10488;50.846;4.078;2024-02-15T03:03:51;9.27;;;2.75;;
20657;SDS011;10488;50.846;4.078;2024-02-15T03:06:20;8.43;;;2.75;;
20657;SDS011;10488;50.846;4.078;2024-02-15T03:08:46;12.35;;;2.88;;
20657;SDS011;10488;50.846;4.078;2024-02-15T03:11:12;8.65;;;2.38;;
20657;SDS011;10488;50.846;4.078;2024-02-15T03:13:39;5.82;;;2.58;;
20657;SDS011;10488;50.846;4.078;2024-02-15T03:16:05;7.78;;;2.38;;
20657;SDS011;10488;50.846;4.078;2024-02-15T03:18:31;7.50;;;2.55;;
20657;SDS011;10488;50.846;4.078;2024-02-15T03:20:58;8.05;;;2.55;;
20657;SDS011;10488;50.846;4.078;2024-02-15T03:23:23;6.53;;;2.38;;
20657;SDS011;10488;50.846;4.078;2024-02-15T03:25:49;7.43;;;2.60;;
20657;SDS011;10488;50.846;4.078;2024-02-15T03:28:15;10.60;;;2.70;;
20657;SDS011;10488;50.846;4.078;2024-02-15T03:30:41;7.80;;;2.85;;
20657;SDS011;10488;50.846;4.078;2024-02-15T03:33:08;10.95;;;3.13;;
20657;SDS011;10488;50.846;4.078;2024-02-15T03:35:33;7.97;;;2.30;;
20657;SDS011;10488;50.846;4.078;2024-02-15T03:38:00;5.72;;;2.78;;
20657;SDS011;10488;50.846;4.078;2024-02-15T03:40:28;7.10;;;2.60;;
20657;SDS011;10488;50.846;4.078;2024-02-15T03:42:55;7.85;;;2.50;;
20657;SDS011;10488;50.846;4.078;2024-02-15T03:45:21;7.55;;;2.75;;
20657;SDS011;10488;50.846;4.078;2024-02-15T03:47:53;6.55;;;3.10;;
20657;SDS011;10488;50.846;4.078;2024-02-15T03:50:19;6.57;;;2.20;;
20657;SDS011;10488;50.846;4.078;2024-02-15T03:52:46;8.02;;;2.67;;
20657;SDS011;10488;50.846;4.078;2024-02-15T03:55:12;5.07;;;2.38;;
20657;SDS011;10488;50.846;4.078;2024-02-15T03:57:39;8.70;;;3.05;;
20657;SDS011;10488;50.846;4.078;2024-02-15T04:00:06;7.82;;;2.20;;
20657;SDS011;10488;50.846;4.078;2024-02-15T04:02:33;8.30;;;2.70;;
20657;SDS011;10488;50.846;4.078;2024-02-15T04:05:00;5.75;;;2.67;;
20657;SDS011;10488;50.846;4.078;2024-02-15T04:07:26;6.95;;;3.33;;
20657;SDS011;10488;50.846;4.078;2024-02-15T04:09:55;8.02;;;2.75;;
20657;SDS011;10488;50.846;4.078;2024-02-15T04:12:20;10.13;;;2.70;;
20657;SDS011;10488;50.846;4.078;2024-02-15T04:14:46;5.60;;;2.53;;
20657;SDS011;10488;50.846;4.078;2024-02-15T04:17:12;6.03;;;2.72;;
20657;SDS011;10488;50.846;4.078;2024-02-15T04:19:40;5.38;;;2.15;;
20657;SDS011;10488;50.846;4.078;2024-02-15T04:22:06;10.30;;;2.80;;
20657;SDS011;10488;50.846;4.078;2024-02-15T04:24:35;8.60;;;2.38;;
20657;SDS011;10488;50.846;4.078;2024-02-15T04:27:05;9.25;;;2.70;;
20657;SDS011;10488;50.846;4.078;2024-02-15T04:29:33;4.32;;;2.35;;
20657;SDS011;10488;50.846;4.078;2024-02-15T04:31:59;6.43;;;2.28;;
20657;SDS011;10488;50.846;4.078;2024-02-15T04:34:25;5.10;;;2.72;;
20657;SDS011;10488;50.846;4.078;2024-02-15T04:36:51;8.93;;;2.35;;
20657;SDS011;10488;50.846;4.078;2024-02-15T04:39:20;8.32;;;3.10;;
20657;SDS011;10488;50.846;4.078;2024-02-15T04:41:51;4.35;;;2.30;;
20657;SDS011;10488;50.846;4.078;2024-02-15T04:44:18;7.32;;;2.58;;
20657;SDS011;10488;50.846;4.078;2024-02-15T04:46:45;7.57;;;2.20;;
20657;SDS011;10488;50.846;4.078;2024-02-15T04:49:12;10.90;;;2.60;;
20657;SDS011;10488;50.846;4.078;2024-02-15T04:51:39;8.30;;;2.45;;
20657;SDS011;10488;50.846;4.078;2024-02-15T04:54:06;8.55;;;2.80;;
20657;SDS011;10488;50.846;4.078;2024-02-15T04:56:33;13.82;;;3.40;;
20657;SDS011;10488;50.846;4.078;2024-02-15T04:59:01;12.57;;;3.50;;
20657;SDS011;10488;50.846;4.078;2024-02-15T05:01:27;7.15;;;3.00;;
20657;SDS011;10488;50.846;4.078;2024-02-15T05:03:54;11.38;;;3.20;;
20657;SDS011;10488;50.846;4.078;2024-02-15T05:06:20;10.55;;;3.35;;
20657;SDS011;10488;50.846;4.078;2024-02-15T05:08:46;9.02;;;3.63;;
20657;SDS011;10488;50.846;4.078;2024-02-15T05:11:12;12.82;;;3.65;;
20657;SDS011;10488;50.846;4.078;2024-02-15T05:13:42;11.52;;;4.38;;
20657;SDS011;10488;50.846;4.078;2024-02-15T05:16:09;11.98;;;4.25;;
20657;SDS011;10488;50.846;4.078;2024-02-15T05:18:35;12.05;;;4.13;;
20657;SDS011;10488;50.846;4.078;2024-02-15T05:21:02;13.70;;;4.43;;
20657;SDS011;10488;50.846;4.078;2024-02-15T05:23:29;9.40;;;4.47;;
20657;SDS011;10488;50.846;4.078;2024-02-15T05:25:55;11.35;;;4.65;;
20657;SDS011;10488;50.846;4.078;2024-02-15T05:28:21;12.65;;;4.60;;
20657;SDS011;10488;50.846;4.078;2024-02-15T05:31:08;14.40;;;4.63;;
20657;SDS011;10488;50.846;4.078;2024-02-15T05:33:52;12.70;;;4.35;;
20657;SDS011;10488;50.846;4.078;2024-02-15T05:36:19;10.00;;;3.55;;
20657;SDS011;10488;50.846;4.078;2024-02-15T05:38:46;10.95;;;4.10;;
20657;SDS011;10488;50.846;4.078;2024-02-15T05:41:15;11.50;;;3.97;;
20657;SDS011;10488;50.846;4.078;2024-02-15T05:43:41;14.38;;;4.70;;
20657;SDS011;10488;50.846;4.078;2024-02-15T05:46:07;12.68;;;4.43;;
20657;SDS011;10488;50.846;4.078;2024-02-15T05:48:33;18.50;;;4.85;;
20657;SDS011;10488;50.846;4.078;2024-02-15T05:51:04;19.33;;;5.38;;
20657;SDS011;10488;50.846;4.078;2024-02-15T05:53:30;16.90;;;5.20;;
20657;SDS011;10488;50.846;4.078;2024-02-15T05:56:01;15.68;;;6.07;;
20657;SDS011;10488;50.846;4.078;2024-02-15T05:58:31;19.92;;;6.28;;
20657;SDS011;10488;50.846;4.078;2024-02-15T06:00:57;15.73;;;5.43;;
20657;SDS011;10488;50.846;4.078;2024-02-15T06:03:29;14.15;;;6.20;;
20657;SDS011;10488;50.846;4.078;2024-02-15T06:05:57;14.25;;;5.50;;
20657;SDS011;10488;50.846;4.078;2024-02-15T06:08:29;13.88;;;5.35;;
20657;SDS011;10488;50.846;4.078;2024-02-15T06:10:55;15.77;;;5.30;;
20657;SDS011;10488;50.846;4.078;2024-02-15T06:13:25;15.32;;;4.88;;
20657;SDS011;10488;50.846;4.078;2024-02-15T06:15:51;14.23;;;5.40;;
20657;SDS011;10488;50.846;4.078;2024-02-15T06:18:21;12.48;;;5.00;;
20657;SDS011;10488;50.846;4.078;2024-02-15T06:20:56;18.92;;;6.68;;
20657;SDS011;10488;50.846;4.078;2024-02-15T06:23:23;16.20;;;5.50;;
20657;SDS011;10488;50.846;4.078;2024-02-15T06:25:51;10.73;;;4.70;;
20657;SDS011;10488;50.846;4.078;2024-02-15T06:28:18;15.85;;;4.53;;
20657;SDS011;10488;50.846;4.078;2024-02-15T06:31:04;14.27;;;4.60;;
20657;SDS011;10488;50.846;4.078;2024-02-15T06:33:48;11.80;;;5.03;;
20657;SDS011;10488;50.846;4.078;2024-02-15T06:36:32;11.93;;;4.65;;
20657;SDS011;10488;50.846;4.078;2024-02-15T06:39:16;11.35;;;4.70;;
20657;SDS011;10488;50.846;4.078;2024-02-15T06:42:01;12.93;;;5.07;;
20657;SDS011;10488;50.846;4.078;2024-02-15T06:44:28;14.40;;;5.53;;
20657;SDS011;10488;50.846;4.078;2024-02-15T06:46:54;14.63;;;5.15;;
20657;SDS011;10488;50.846;4.078;2024-02-15T06:49:20;12.20;;;5.15;;
20657;SDS011;10488;50.846;4.078;2024-02-15T06:51:49;14.82;;;5.30;;
20657;SDS011;10488;50.846;4.078;2024-02-15T06:54:14;18.48;;;5.82;;
20657;SDS011;10488;50.846;4.078;2024-02-15T06:56:42;12.55;;;4.85;;
20657;SDS011;10488;50.846;4.078;2024-02-15T06:59:08;12.68;;;4.82;;
20657;SDS011;10488;50.846;4.078;2024-02-15T07:01:35;11.93;;;4.65;;
20657;SDS011;10488;50.846;4.078;2024-02-15T07:04:01;11.10;;;4.10;;
20657;SDS011;10488;50.846;4.078;2024-02-15T07:06:28;13.20;;;4.07;;
20657;SDS011;10488;50.846;4.078;2024-02-15T07:08:54;8.43;;;3.67;;
20657;SDS011;10488;50.846;4.078;2024-02-15T07:11:21;10.43;;;3.60;;
20657;SDS011;10488;50.846;4.078;2024-02-15T07:13:47;11.18;;;4.15;;
20657;SDS011;10488;50.846;4.078;2024-02-15T07:16:20;10.27;;;3.83;;
20657;SDS011;10488;50.846;4.078;2024-02-15T07:18:46;9.77;;;3.30;;
20657;SDS011;10488;50.846;4.078;2024-02-15T07:21:12;9.93;;;3.70;;
20657;SDS011;10488;50.846;4.078;2024-02-15T07:23:39;13.65;;;3.72;;
20657;SDS011;10488;50.846;4.078;2024-02-15T07:26:06;10.32;;;2.90;;
20657;SDS011;10488;50.846;4.078;2024-02-15T07:28:33;13.85;;;3.25;;
20657;SDS011;10488;50.846;4.078;2024-02-15T07:30:58;8.02;;;2.90;;
20657;SDS011;10488;50.846;4.078;2024-02-15T07:33:27;12.10;;;2.95;;
20657;SDS011;10488;50.846;4.078;2024-02-15T07:35:54;9.45;;;3.78;;
20657;SDS011;10488;50.846;4.078;2024-02-15T07:38:19;9.43;;;3.10;;
20657;SDS011;10488;50.846;4.078;2024-02-15T07:40:47;7.30;;;2.60;;
20657;SDS011;10488;50.846;4.078;2024-02-15T07:43:14;6.22;;;2.42;;
20657;SDS011;10488;50.846;4.078;2024-02-15T07:45:40;5.25;;;2.15;;
20657;SDS011;10488;50.846;4.078;2024-02-15T07:48:06;5.30;;;1.92;;
20657;SDS011;10488;50.846;4.078;2024-02-15T07:50:32;5.53;;;1.80;;
20657;SDS011;10488;50.846;4.078;2024-02-15T07:52:57;5.57;;;1.55;;
20657;SDS011;10488;50.846;4.078;2024-02-15T07:55:23;4.03;;;1.85;;
20657;SDS011;10488;50.846;4.078;2024-02-15T07:57:52;5.97;;;2.15;;
20657;SDS011;10488;50.846;4.078;2024-02-15T08:00:18;8.73;;;2.67;;
20657;SDS011;10488;50.846;4.078;2024-02-15T08:02:44;3.58;;;1.75;;
20657;SDS011;10488;50.846;4.078;2024-02-15T08:05:10;2.97;;;1.58;;
20657;SDS011;10488;50.846;4.078;2024-02-15T08:07:38;5.20;;;1.42;;
20657;SDS011;10488;50.846;4.078;2024-02-15T08:10:07;3.45;;;1.50;;
20657;SDS011;10488;50.846;4.078;2024-02-15T08:12:38;3.47;;;1.88;;
20657;SDS011;10488;50.846;4.078;2024-02-15T08:15:05;4.55;;;2.17;;
20657;SDS011;10488;50.846;4.078;2024-02-15T08:17:33;7.97;;;3.30;;
20657;SDS011;10488;50.846;4.078;2024-02-15T08:19:58;3.80;;;1.92;;
20657;SDS011;10488;50.846;4.078;2024-02-15T08:22:24;4.25;;;1.58;;
20657;SDS011;10488;50.846;4.078;2024-02-15T08:24:52;7.20;;;1.40;;
20657;SDS011;10488;50.846;4.078;2024-02-15T08:27:17;10.13;;;1.80;;
20657;SDS011;10488;50.846;4.078;2024-02-15T08:29:43;6.82;;;1.70;;
20657;SDS011;10488;50.846;4.078;2024-02-15T08:32:08;12.13;;;1.90;;
20657;SDS011;10488;50.846;4.078;2024-02-15T08:34:35;7.97;;;1.45;;
20657;SDS011;10488;50.846;4.078;2024-02-15T08:37:00;9.70;;;1.85;;
20657;SDS011;10488;50.846;4.078;2024-02-15T08:39:27;4.18;;;1.60;;
20657;SDS011;10488;50.846;4.078;2024-02-15T08:41:53;7.70;;;1.63;;
20657;SDS011;10488;50.846;4.078;2024-02-15T08:44:19;2.92;;;1.25;;
20657;SDS011;10488;50.846;4.078;2024-02-15T08:46:46;4.70;;;1.60;;
20657;SDS011;10488;50.846;4.078;2024-02-15T08:49:13;4.00;;;1.33;;
20657;SDS011;10488;50.846;4.078;2024-02-15T08:51:39;2.85;;;1.30;;
20657;SDS011;10488;50.846;4.078;2024-02-15T08:54:04;3.75;;;1.60;;
20657;SDS011;10488;50.846;4.078;2024-02-15T08:56:30;2.83;;;1.63;;
20657;SDS011;10488;50.846;4.078;2024-02-15T08:58:55;3.90;;;1.40;;
20657;SDS011;10488;50.846;4.078;2024-02-15T09:01:22;5.28;;;1.50;;
20657;SDS011;10488;50.846;4.078;2024-02-15T09:03:49;3.70;;;1.63;;
20657;SDS011;10488;50.846;4.078;2024-02-15T09:06:14;4.15;;;1.60;;
20657;SDS011;10488;50.846;4.078;2024-02-15T09:08:40;3.88;;;1.40;;
20657;SDS011;10488;50.846;4.078;2024-02-15T09:11:05;4.97;;;1.48;;
20657;SDS011;10488;50.846;4.078;2024-02-15T09:13:31;3.45;;;1.45;;
20657;SDS011;10488;50.846;4.078;2024-02-15T09:15:58;3.40;;;1.23;;
20657;SDS011;10488;50.846;4.078;2024-02-15T09:18:24;5.75;;;1.70;;
20657;SDS011;10488;50.846;4.078;2024-02-15T09:20:50;3.55;;;1.52;;
20657;SDS011;10488;50.846;4.078;2024-02-15T09:23:20;6.88;;;2.00;;
20657;SDS011;10488;50.846;4.078;2024-02-15T09:25:48;6.22;;;1.35;;
20657;SDS011;10488;50.846;4.078;2024-02-15T09:28:16;3.53;;;1.70;;
20657;SDS011;10488;50.846;4.078;2024-02-15T09:30:47;4.30;;;1.50;;
20657;SDS011;10488;50.846;4.078;2024-02-15T09:33:13;2.83;;;1.58;;
20657;SDS011;10488;50.846;4.078;2024-02-15T09:35:38;5.00;;;1.70;;
20657;SDS011;10488;50.846;4.078;2024-02-15T09:38:04;4.70;;;1.60;;
20657;SDS011;10488;50.846;4.078;2024-02-15T09:40:31;5.40;;;1.95;;
20657;SDS011;10488;50.846;4.078;2024-02-15T09:42:57;5.30;;;2.00;;
20657;SDS011;10488;50.846;4.078;2024-02-15T09:45:24;3.00;;;1.48;;
20657;SDS011;10488;50.846;4.078;2024-02-15T09:47:50;7.35;;;2.65;;
20657;SDS011;10488;50.846;4.078;2024-02-15T09:50:17;8.65;;;3.65;;
20657;SDS011;10488;50.846;4.078;2024-02-15T09:52:52;10.75;;;3.97;;
20657;SDS011;10488;50.846;4.078;2024-02-15T09:55:21;11.63;;;4.45;;
20657;SDS011;10488;50.846;4.078;2024-02-15T09:57:49;10.60;;;4.10;;
20657;SDS011;10488;50.846;4.078;2024-02-15T10:00:18;13.60;;;4.15;;
20657;SDS011;10488;50.846;4.078;2024-02-15T10:02:44;8.73;;;4.25;;
20657;SDS011;10488;50.846;4.078;2024-02-15T10:05:16;12.57;;;5.00;;
20657;SDS011;10488;50.846;4.078;2024-02-15T10:07:43;12.65;;;4.50;;
20657;SDS011;10488;50.846;4.078;2024-02-15T10:10:16;17.83;;;4.82;;
20657;SDS011;10488;50.846;4.078;2024-02-15T10:12:42;13.50;;;4.45;;
20657;SDS011;10488;50.846;4.078;2024-02-15T10:15:08;17.00;;;4.93;;
20657;SDS011;10488;50.846;4.078;2024-02-15T10:17:35;11.15;;;5.32;;
20657;SDS011;10488;50.846;4.078;2024-02-15T10:20:04;17.50;;;5.60;;
20657;SDS011;10488;50.846;4.078;2024-02-15T10:22:35;12.88;;;4.60;;
20657;SDS011;10488;50.846;4.078;2024-02-15T10:25:10;10.07;;;4.03;;
20657;SDS011;10488;50.846;4.078;2024-02-15T10:27:36;12.27;;;3.25;;
20657;SDS011;10488;50.846;4.078;2024-02-15T10:30:18;7.95;;;2.78;;
20657;SDS011;10488;50.846;4.078;2024-02-15T10:32:45;9.98;;;2.90;;
20657;SDS011;10488;50.846;4.078;2024-02-15T10:35:23;5.80;;;2.15;;
20657;SDS011;10488;50.846;4.078;2024-02-15T10:37:49;8.63;;;3.00;;
20657;SDS011;10488;50.846;4.078;2024-02-15T10:40:19;7.72;;;2.00;;
20657;SDS011;10488;50.846;4.078;2024-02-15T10:42:51;9.50;;;2.40;;
20657;SDS011;10488;50.846;4.078;2024-02-15T10:45:21;6.75;;;2.08;;
20657;SDS011;10488;50.846;4.078;2024-02-15T10:47:47;7.65;;;1.83;;
20657;SDS011;10488;50.846;4.078;2024-02-15T10:50:13;9.82;;;2.60;;
20657;SDS011;10488;50.846;4.078;2024-02-15T10:52:43;4.03;;;1.92;;
20657;SDS011;10488;50.846;4.078;2024-02-15T10:58:05;6.53;;;2.60;;
20657;SDS011;10488;50.846;4.078;2024-02-15T11:00:34;8.30;;;2.75;;
20657;SDS011;10488;50.846;4.078;2024-02-15T11:03:04;7.78;;;2.30;;
20657;SDS011;10488;50.846;4.078;2024-02-15T11:05:36;7.43;;;2.40;;
20657;SDS011;10488;50.846;4.078;2024-02-15T11:08:04;8.40;;;2.95;;
20657;SDS011;10488;50.846;4.078;2024-02-15T11:10:31;8.10;;;2.22;;
20657;SDS011;10488;50.846;4.078;2024-02-15T11:12:59;9.23;;;3.13;;
20657;SDS011;10488;50.846;4.078;2024-02-15T11:15:41;6.70;;;2.33;;
20657;SDS011;10488;50.846;4.078;2024-02-15T11:18:10;7.40;;;2.22;;
20657;SDS011;10488;50.846;4.078;2024-02-15T11:23:03;4.15;;;2.38;;
20657;SDS011;10488;50.846;4.078;2024-02-15T11:25:35;7.82;;;2.08;;
20657;SDS011;10488;50.846;4.078;2024-02-15T11:30:50;6.35;;;1.80;;
20657;SDS011;10488;50.846;4.078;2024-02-15T11:33:32;3.05;;;1.63;;
20657;SDS011;10488;50.846;4.078;2024-02-15T11:36:01;5.55;;;1.65;;
20657;SDS011;10488;50.846;4.078;2024-02-15T11:38:32;3.78;;;1.65;;
20657;SDS011;10488;50.846;4.078;2024-02-15T11:40:59;2.10;;;1.38;;
20657;SDS011;10488;50.846;4.078;2024-02-15T11:46:23;5.88;;;1.30;;
20657;SDS011;10488;50.846;4.078;2024-02-15T11:48:51;4.38;;;1.30;;
20657;SDS011;10488;50.846;4.078;2024-02-15T11:51:30;2.83;;;0.90;;
20657;SDS011;10488;50.846;4.078;2024-02-15T11:59:41;3.45;;;1.20;;
20657;SDS011;10488;50.846;4.078;2024-02-15T12:02:26;2.67;;;1.00;;
20657;SDS011;10488;50.846;4.078;2024-02-15T12:05:10;1.67;;;1.10;;
20657;SDS011;10488;50.846;4.078;2024-02-15T12:07:55;2.65;;;1.08;;
20657;SDS011;10488;50.846;4.078;2024-02-15T12:10:39;3.13;;;1.00;;
20657;SDS011;10488;50.846;4.078;2024-02-15T12:13:24;2.83;;;1.10;;
20657;SDS011;10488;50.846;4.078;2024-02-15T12:16:15;2.88;;;0.90;;
20657;SDS011;10488;50.846;4.078;2024-02-15T12:19:10;2.72;;;1.10;;
20657;SDS011;10488;50.846;4.078;2024-02-15T12:21:35;2.30;;;1.42;;
20657;SDS011;10488;50.846;4.078;2024-02-15T12:24:06;2.15;;;1.58;;
20657;SDS011;10488;50.846;4.078;2024-02-15T12:26:32;6.13;;;1.00;;
20657;SDS011;10488;50.846;4.078;2024-02-15T12:28:59;1.67;;;0.80;;
20657;SDS011;10488;50.846;4.078;2024-02-15T12:31:26;3.30;;;1.00;;
20657;SDS011;10488;50.846;4.078;2024-02-15T12:33:59;1.42;;;1.00;;
20657;SDS011;10488;50.846;4.078;2024-02-15T12:36:26;2.92;;;1.30;;
20657;SDS011;10488;50.846;4.078;2024-02-15T12:39:02;2.63;;;1.10;;
20657;SDS011;10488;50.846;4.078;2024-02-15T12:41:35;2.17;;;0.88;;
20657;SDS011;10488;50.846;4.078;2024-02-15T12:44:05;12.50;;;1.42;;
20657;SDS011;10488;50.846;4.078;2024-02-15T12:46:33;2.25;;;0.85;;
20657;SDS011;10488;50.846;4.078;2024-02-15T12:49:09;2.47;;;0.93;;
20657;SDS011;10488;50.846;4.078;2024-02-15T12:51:41;1.77;;;0.70;;
20657;SDS011;10488;50.846;4.078;2024-02-15T12:54:19;4.68;;;1.10;;
20657;SDS011;10488;50.846;4.078;2024-02-15T12:56:46;5.03;;;0.80;;
20657;SDS011;10488;50.846;4.078;2024-02-15T12:59:17;1.67;;;0.65;;
20657;SDS011;10488;50.846;4.078;2024-02-15T13:01:46;3.83;;;1.00;;
20657;SDS011;10488;50.846;4.078;2024-02-15T13:04:24;3.88;;;0.80;;
20657;SDS011;10488;50.846;4.078;2024-02-15T13:06:50;2.72;;;0.80;;
20657;SDS011;10488;50.846;4.078;2024-02-15T13:09:16;3.38;;;0.90;;
20657;SDS011;10488;50.846;4.078;2024-02-15T13:11:41;3.00;;;1.05;;
20657;SDS011;10488;50.846;4.078;2024-02-15T13:14:12;2.78;;;0.80;;
20657;SDS011;10488;50.846;4.078;2024-02-15T13:16:38;3.47;;;0.73;;
20657;SDS011;10488;50.846;4.078;2024-02-15T13:19:03;1.83;;;0.70;;
20657;SDS011;10488;50.846;4.078;2024-02-15T13:21:32;3.25;;;0.90;;
20657;SDS011;10488;50.846;4.078;2024-02-15T13:23:59;5.75;;;2.10;;
20657;SDS011;10488;50.846;4.078;2024-02-15T13:26:25;1.90;;;1.00;;
20657;SDS011;10488;50.846;4.078;2024-02-15T13:28:51;2.85;;;1.08;;
20657;SDS011;10488;50.846;4.078;2024-02-15T13:31:17;3.83;;;0.90;;
20657;SDS011;10488;50.846;4.078;2024-02-15T13:33:46;2.10;;;0.90;;
20657;SDS011;10488;50.846;4.078;2024-02-15T13:36:12;1.63;;;0.85;;
20657;SDS011;10488;50.846;4.078;2024-02-15T13:38:40;2.53;;;0.90;;
20657;SDS011;10488;50.846;4.078;2024-02-15T13:41:07;2.15;;;0.82;;
20657;SDS011;10488;50.846;4.078;2024-02-15T13:43:33;5.47;;;0.80;;
20657;SDS011;10488;50.846;4.078;2024-02-15T13:45:59;1.48;;;0.63;;
20657;SDS011;10488;50.846;4.078;2024-02-15T13:48:27;1.55;;;0.90;;
20657;SDS011;10488;50.846;4.078;2024-02-15T13:50:55;1.75;;;0.82;;
20657;SDS011;10488;50.846;4.078;2024-02-15T13:53:21;4.15;;;1.20;;
20657;SDS011;10488;50.846;4.078;2024-02-15T13:55:47;0.93;;;0.65;;
20657;SDS011;10488;50.846;4.078;2024-02-15T13:58:12;2.00;;;1.20;;
20657;SDS011;10488;50.846;4.078;2024-02-15T14:00:39;3.50;;;1.30;;
20657;SDS011;10488;50.846;4.078;2024-02-15T14:03:07;2.08;;;1.05;;
20657;SDS011;10488;50.846;4.078;2024-02-15T14:05:35;5.13;;;1.23;;
20657;SDS011;10488;50.846;4.078;2024-02-15T14:08:02;1.80;;;0.90;;
20657;SDS011;10488;50.846;4.078;2024-02-15T14:10:34;3.90;;;0.82;;
20657;SDS011;10488;50.846;4.078;2024-02-15T14:13:01;3.95;;;1.05;;
20657;SDS011;10488;50.846;4.078;2024-02-15T14:15:28;2.00;;;1.00;;
20657;SDS011;10488;50.846;4.078;2024-02-15T14:18:07;6.43;;;0.95;;
20657;SDS011;10488;50.846;4.078;2024-02-15T14:20:35;2.33;;;0.90;;
20657;SDS011;10488;50.846;4.078;2024-02-15T14:23:02;4.25;;;0.88;;
20657;SDS011;10488;50.846;4.078;2024-02-15T14:25:31;3.90;;;0.90;;
20657;SDS011;10488;50.846;4.078;2024-02-15T14:27:57;3.05;;;0.82;;
20657;SDS011;10488;50.846;4.078;2024-02-15T14:30:23;1.63;;;0.90;;
20657;SDS011;10488;50.846;4.078;2024-02-15T14:33:08;3.58;;;1.13;;
20657;SDS011;10488;50.846;4.078;2024-02-15T14:35:37;1.30;;;0.70;;
20657;SDS011;10488;50.846;4.078;2024-02-15T14:38:09;4.03;;;1.05;;
20657;SDS011;10488;50.846;4.078;2024-02-15T14:40:37;3.10;;;0.90;;
20657;SDS011;10488;50.846;4.078;2024-02-15T14:43:04;3.53;;;1.10;;
20657;SDS011;10488;50.846;4.078;2024-02-15T14:45:34;0.80;;;0.57;;
20657;SDS011;10488;50.846;4.078;2024-02-15T14:48:01;5.22;;;1.13;;
20657;SDS011;10488;50.846;4.078;2024-02-15T14:50:28;1.70;;;0.90;;
20657;SDS011;10488;50.846;4.078;2024-02-15T14:52:54;2.88;;;1.38;;
20657;SDS011;10488;50.846;4.078;2024-02-15T14:55:20;6.82;;;1.17;;
20657;SDS011;10488;50.846;4.078;2024-02-15T14:57:46;3.08;;;0.95;;
20657;SDS011;10488;50.846;4.078;2024-02-15T15:00:12;0.65;;;0.60;;
20657;SDS011;10488;50.846;4.078;2024-02-15T15:02:44;1.25;;;0.70;;
20657;SDS011;10488;50.846;4.078;2024-02-15T15:05:11;2.88;;;1.83;;